Terminal Aerodrome Forecast
Issued by NWS

Home | Current Version | Previous Version | Text Only | Print | Product List | Glossary On
Versions: 1 2 3 4 5 6 7 8 9 10 11 12 13 14 15 16 17 18 19 20 21 22
000
FTUS42 KFFC 291735
TAFPDK
TAF
KPDK 291735Z 2918/3018 20003KT P6SM SCT040
     FM292100 26004KT P6SM VCSH BKN050
     FM300000 12005KT P6SM BKN250
     FM301000 14004KT P6SM SCT015 BKN250
     FM301600 15009G15KT P6SM BKN035=

USA.gov is the U.S. government's official web portal to all federal, state and local government web resources and services.